sensor_id;sensor_type;location;lat;lon;timestamp;temperature;humidity
8231;DHT22;4156;50.908;6.974;2022-09-09T00:03:48;20.40;99.90
8231;DHT22;4156;50.908;6.974;2022-09-09T00:06:42;20.40;99.90
8231;DHT22;4156;50.908;6.974;2022-09-09T00:09:22;20.30;99.90
8231;DHT22;4156;50.908;6.974;2022-09-09T00:12:04;20.30;99.90
8231;DHT22;4156;50.908;6.974;2022-09-09T00:17:09;20.30;99.90
8231;DHT22;4156;50.908;6.974;2022-09-09T00:19:52;20.20;99.90
8231;DHT22;4156;50.908;6.974;2022-09-09T00:22:20;20.20;99.90
8231;DHT22;4156;50.908;6.974;2022-09-09T00:25:28;20.20;99.90
8231;DHT22;4156;50.908;6.974;2022-09-09T00:27:48;20.20;99.90
8231;DHT22;4156;50.908;6.974;2022-09-09T00:32:41;20.10;99.90
8231;DHT22;4156;50.908;6.974;2022-09-09T00:35:21;20.10;99.90
8231;DHT22;4156;50.908;6.974;2022-09-09T00:37:49;20.10;99.90
8231;DHT22;4156;50.908;6.974;2022-09-09T00:40:37;20.10;99.90
8231;DHT22;4156;50.908;6.974;2022-09-09T00:43:16;20.10;99.90
8231;DHT22;4156;50.908;6.974;2022-09-09T00:48:38;20.00;99.90
8231;DHT22;4156;50.908;6.974;2022-09-09T00:51:15;20.00;99.90
8231;DHT22;4156;50.908;6.974;2022-09-09T00:56:34;20.00;99.90
8231;DHT22;4156;50.908;6.974;2022-09-09T01:01:33;20.00;99.90
8231;DHT22;4156;50.908;6.974;2022-09-09T01:04:01;20.00;99.90
8231;DHT22;4156;50.908;6.974;2022-09-09T01:12:02;20.00;99.90
8231;DHT22;4156;50.908;6.974;2022-09-09T01:17:05;19.90;99.90
8231;DHT22;4156;50.908;6.974;2022-09-09T01:22:35;19.90;99.90
8231;DHT22;4156;50.908;6.974;2022-09-09T01:27:30;19.90;99.90
8231;DHT22;4156;50.908;6.974;2022-09-09T01:29:57;19.90;99.90
8231;DHT22;4156;50.908;6.974;2022-09-09T01:35:21;19.80;99.90
8231;DHT22;4156;50.908;6.974;2022-09-09T01:37:48;19.80;99.90
8231;DHT22;4156;50.908;6.974;2022-09-09T01:40:13;19.80;99.90
8231;DHT22;4156;50.908;6.974;2022-09-09T01:42:39;19.80;99.90
8231;DHT22;4156;50.908;6.974;2022-09-09T01:45:05;19.80;99.90
8231;DHT22;4156;50.908;6.974;2022-09-09T01:47:31;19.80;99.90
8231;DHT22;4156;50.908;6.974;2022-09-09T01:49:57;19.80;99.90
8231;DHT22;4156;50.908;6.974;2022-09-09T01:52:23;19.80;99.90
8231;DHT22;4156;50.908;6.974;2022-09-09T01:54:49;19.80;99.90
8231;DHT22;4156;50.908;6.974;2022-09-09T01:57:31;19.80;99.90
8231;DHT22;4156;50.908;6.974;2022-09-09T02:00:11;19.80;99.90
8231;DHT22;4156;50.908;6.974;2022-09-09T02:03:04;19.80;99.90
8231;DHT22;4156;50.908;6.974;2022-09-09T02:05:40;19.70;99.90
8231;DHT22;4156;50.908;6.974;2022-09-09T02:08:26;19.80;99.90
8231;DHT22;4156;50.908;6.974;2022-09-09T02:10:59;19.70;99.90
8231;DHT22;4156;50.908;6.974;2022-09-09T02:13:28;19.70;99.90
8231;DHT22;4156;50.908;6.974;2022-09-09T02:16:07;19.70;99.90
8231;DHT22;4156;50.908;6.974;2022-09-09T02:21:16;19.70;99.90
8231;DHT22;4156;50.908;6.974;2022-09-09T02:23:43;19.60;99.90
8231;DHT22;4156;50.908;6.974;2022-09-09T02:26:12;19.60;99.90
8231;DHT22;4156;50.908;6.974;2022-09-09T02:28:40;19.60;99.90
8231;DHT22;4156;50.908;6.974;2022-09-09T02:31:07;19.60;99.90
8231;DHT22;4156;50.908;6.974;2022-09-09T02:33:41;19.60;99.90
8231;DHT22;4156;50.908;6.974;2022-09-09T02:36:08;19.60;99.90
8231;DHT22;4156;50.908;6.974;2022-09-09T02:38:39;19.60;99.90
8231;DHT22;4156;50.908;6.974;2022-09-09T02:41:06;19.60;99.90
8231;DHT22;4156;50.908;6.974;2022-09-09T02:43:33;19.60;99.90
8231;DHT22;4156;50.908;6.974;2022-09-09T02:49:28;19.60;99.90
8231;DHT22;4156;50.908;6.974;2022-09-09T02:52:05;19.60;99.90
8231;DHT22;4156;50.908;6.974;2022-09-09T02:54:33;19.60;99.90
8231;DHT22;4156;50.908;6.974;2022-09-09T02:57:19;19.50;99.90
8231;DHT22;4156;50.908;6.974;2022-09-09T02:59:46;19.50;99.90
8231;DHT22;4156;50.908;6.974;2022-09-09T03:02:12;19.50;99.90
8231;DHT22;4156;50.908;6.974;2022-09-09T03:04:38;19.50;99.90
8231;DHT22;4156;50.908;6.974;2022-09-09T03:07:04;19.50;99.90
8231;DHT22;4156;50.908;6.974;2022-09-09T03:09:30;19.50;99.90
8231;DHT22;4156;50.908;6.974;2022-09-09T03:11:56;19.60;99.90
8231;DHT22;4156;50.908;6.974;2022-09-09T03:14:22;19.50;99.90
8231;DHT22;4156;50.908;6.974;2022-09-09T03:16:51;19.50;99.90
8231;DHT22;4156;50.908;6.974;2022-09-09T03:19:17;19.50;99.90
8231;DHT22;4156;50.908;6.974;2022-09-09T03:21:44;19.50;99.90
8231;DHT22;4156;50.908;6.974;2022-09-09T03:24:10;19.50;99.90
8231;DHT22;4156;50.908;6.974;2022-09-09T03:26:35;19.50;99.90
8231;DHT22;4156;50.908;6.974;2022-09-09T03:29:03;19.50;99.90
8231;DHT22;4156;50.908;6.974;2022-09-09T03:31:32;19.50;99.90
8231;DHT22;4156;50.908;6.974;2022-09-09T03:33:58;19.50;99.90
8231;DHT22;4156;50.908;6.974;2022-09-09T03:36:27;19.50;99.90
8231;DHT22;4156;50.908;6.974;2022-09-09T03:38:53;19.50;99.90
8231;DHT22;4156;50.908;6.974;2022-09-09T03:41:23;19.50;99.90
8231;DHT22;4156;50.908;6.974;2022-09-09T03:43:52;19.50;99.90
8231;DHT22;4156;50.908;6.974;2022-09-09T03:46:19;19.50;99.90
8231;DHT22;4156;50.908;6.974;2022-09-09T03:48:45;19.50;99.90
8231;DHT22;4156;50.908;6.974;2022-09-09T03:51:10;19.50;99.90
8231;DHT22;4156;50.908;6.974;2022-09-09T03:53:36;19.50;99.90
8231;DHT22;4156;50.908;6.974;2022-09-09T03:56:03;19.50;99.90
8231;DHT22;4156;50.908;6.974;2022-09-09T03:58:29;19.50;99.90
8231;DHT22;4156;50.908;6.974;2022-09-09T04:00:55;19.50;99.90
8231;DHT22;4156;50.908;6.974;2022-09-09T04:03:22;19.40;99.90
8231;DHT22;4156;50.908;6.974;2022-09-09T04:05:50;19.50;99.90
8231;DHT22;4156;50.908;6.974;2022-09-09T04:08:17;19.50;99.90
8231;DHT22;4156;50.908;6.974;2022-09-09T04:10:45;19.50;99.90
8231;DHT22;4156;50.908;6.974;2022-09-09T04:13:12;19.50;99.90
8231;DHT22;4156;50.908;6.974;2022-09-09T04:15:40;19.50;99.90
8231;DHT22;4156;50.908;6.974;2022-09-09T04:18:06;19.50;99.90
8231;DHT22;4156;50.908;6.974;2022-09-09T04:20:32;19.50;99.90
8231;DHT22;4156;50.908;6.974;2022-09-09T04:22:58;19.50;99.90
8231;DHT22;4156;50.908;6.974;2022-09-09T04:25:23;19.50;99.90
8231;DHT22;4156;50.908;6.974;2022-09-09T04:27:54;19.40;99.90
8231;DHT22;4156;50.908;6.974;2022-09-09T04:30:20;19.40;99.90
8231;DHT22;4156;50.908;6.974;2022-09-09T04:32:46;19.40;99.90
8231;DHT22;4156;50.908;6.974;2022-09-09T04:35:12;19.40;99.90
8231;DHT22;4156;50.908;6.974;2022-09-09T04:37:37;19.50;99.90
8231;DHT22;4156;50.908;6.974;2022-09-09T04:40:03;19.50;99.90
8231;DHT22;4156;50.908;6.974;2022-09-09T04:42:29;19.40;99.90
8231;DHT22;4156;50.908;6.974;2022-09-09T04:44:54;19.50;99.90
8231;DHT22;4156;50.908;6.974;2022-09-09T04:47:20;19.50;99.90
8231;DHT22;4156;50.908;6.974;2022-09-09T04:49:45;19.50;99.90
8231;DHT22;4156;50.908;6.974;2022-09-09T04:52:11;19.50;99.90
8231;DHT22;4156;50.908;6.974;2022-09-09T04:54:36;19.50;99.90
8231;DHT22;4156;50.908;6.974;2022-09-09T04:57:02;19.50;99.90
8231;DHT22;4156;50.908;6.974;2022-09-09T04:59:28;19.50;99.90
8231;DHT22;4156;50.908;6.974;2022-09-09T05:01:53;19.50;99.90
8231;DHT22;4156;50.908;6.974;2022-09-09T05:04:20;19.50;99.90
8231;DHT22;4156;50.908;6.974;2022-09-09T05:06:46;19.50;99.90
8231;DHT22;4156;50.908;6.974;2022-09-09T05:09:11;19.50;99.90
8231;DHT22;4156;50.908;6.974;2022-09-09T05:11:37;19.50;99.90
8231;DHT22;4156;50.908;6.974;2022-09-09T05:14:03;19.50;99.90
8231;DHT22;4156;50.908;6.974;2022-09-09T05:16:29;19.50;99.90
8231;DHT22;4156;50.908;6.974;2022-09-09T05:18:55;19.50;99.90
8231;DHT22;4156;50.908;6.974;2022-09-09T05:21:23;19.50;99.90
8231;DHT22;4156;50.908;6.974;2022-09-09T05:23:51;19.40;99.90
8231;DHT22;4156;50.908;6.974;2022-09-09T05:26:21;19.40;99.90
8231;DHT22;4156;50.908;6.974;2022-09-09T05:28:47;19.40;99.90
8231;DHT22;4156;50.908;6.974;2022-09-09T05:31:13;19.40;99.90
8231;DHT22;4156;50.908;6.974;2022-09-09T05:33:41;19.40;99.90
8231;DHT22;4156;50.908;6.974;2022-09-09T05:36:10;19.40;99.90
8231;DHT22;4156;50.908;6.974;2022-09-09T05:38:38;19.40;99.90
8231;DHT22;4156;50.908;6.974;2022-09-09T05:41:04;19.40;99.90
8231;DHT22;4156;50.908;6.974;2022-09-09T05:43:30;19.40;99.90
8231;DHT22;4156;50.908;6.974;2022-09-09T05:46:04;19.30;99.90
8231;DHT22;4156;50.908;6.974;2022-09-09T05:48:31;19.30;99.90
8231;DHT22;4156;50.908;6.974;2022-09-09T05:50:59;19.30;99.90
8231;DHT22;4156;50.908;6.974;2022-09-09T05:53:26;19.30;99.90
8231;DHT22;4156;50.908;6.974;2022-09-09T05:56:10;19.30;99.90
8231;DHT22;4156;50.908;6.974;2022-09-09T05:58:36;19.30;99.90
8231;DHT22;4156;50.908;6.974;2022-09-09T06:01:13;19.30;99.90
8231;DHT22;4156;50.908;6.974;2022-09-09T06:03:41;19.30;99.90
8231;DHT22;4156;50.908;6.974;2022-09-09T06:06:09;19.40;99.90
8231;DHT22;4156;50.908;6.974;2022-09-09T06:08:37;19.40;99.90
8231;DHT22;4156;50.908;6.974;2022-09-09T06:11:06;19.40;99.90
8231;DHT22;4156;50.908;6.974;2022-09-09T06:13:31;19.40;99.90
8231;DHT22;4156;50.908;6.974;2022-09-09T06:15:57;19.40;99.90
8231;DHT22;4156;50.908;6.974;2022-09-09T06:18:24;19.40;99.90
8231;DHT22;4156;50.908;6.974;2022-09-09T06:20:57;19.50;99.90
8231;DHT22;4156;50.908;6.974;2022-09-09T06:23:23;19.50;99.90
8231;DHT22;4156;50.908;6.974;2022-09-09T06:25:49;19.50;99.90
8231;DHT22;4156;50.908;6.974;2022-09-09T06:28:16;19.50;99.90
8231;DHT22;4156;50.908;6.974;2022-09-09T06:30:42;19.50;99.90
8231;DHT22;4156;50.908;6.974;2022-09-09T06:33:08;19.50;99.90
8231;DHT22;4156;50.908;6.974;2022-09-09T06:35:34;19.50;99.90
8231;DHT22;4156;50.908;6.974;2022-09-09T06:38:00;19.50;99.90
8231;DHT22;4156;50.908;6.974;2022-09-09T06:40:26;19.50;99.90
8231;DHT22;4156;50.908;6.974;2022-09-09T06:42:51;19.50;99.90
8231;DHT22;4156;50.908;6.974;2022-09-09T06:45:17;19.50;99.90
8231;DHT22;4156;50.908;6.974;2022-09-09T06:47:43;19.50;99.90
8231;DHT22;4156;50.908;6.974;2022-09-09T06:50:08;19.50;99.90
8231;DHT22;4156;50.908;6.974;2022-09-09T06:52:36;19.60;99.90
8231;DHT22;4156;50.908;6.974;2022-09-09T06:55:02;19.60;99.90
8231;DHT22;4156;50.908;6.974;2022-09-09T06:57:28;19.60;99.90
8231;DHT22;4156;50.908;6.974;2022-09-09T06:59:54;19.70;99.90
8231;DHT22;4156;50.908;6.974;2022-09-09T07:02:19;19.70;99.90
8231;DHT22;4156;50.908;6.974;2022-09-09T07:04:45;19.70;99.90
8231;DHT22;4156;50.908;6.974;2022-09-09T07:07:10;19.80;99.90
8231;DHT22;4156;50.908;6.974;2022-09-09T07:09:38;19.80;99.90
8231;DHT22;4156;50.908;6.974;2022-09-09T07:12:05;19.90;99.90
8231;DHT22;4156;50.908;6.974;2022-09-09T07:14:31;19.90;99.90
8231;DHT22;4156;50.908;6.974;2022-09-09T07:16:57;20.00;99.90
8231;DHT22;4156;50.908;6.974;2022-09-09T07:19:23;20.00;99.90
8231;DHT22;4156;50.908;6.974;2022-09-09T07:21:48;20.00;99.90
8231;DHT22;4156;50.908;6.974;2022-09-09T07:24:14;20.10;99.90
8231;DHT22;4156;50.908;6.974;2022-09-09T07:26:40;20.10;99.90
8231;DHT22;4156;50.908;6.974;2022-09-09T07:29:07;20.20;99.90
8231;DHT22;4156;50.908;6.974;2022-09-09T07:31:35;20.20;99.90
8231;DHT22;4156;50.908;6.974;2022-09-09T07:34:04;20.20;99.90
8231;DHT22;4156;50.908;6.974;2022-09-09T07:36:35;20.30;99.90
8231;DHT22;4156;50.908;6.974;2022-09-09T07:39:06;20.30;99.90
8231;DHT22;4156;50.908;6.974;2022-09-09T07:44:05;20.30;99.90
8231;DHT22;4156;50.908;6.974;2022-09-09T07:46:31;20.40;99.90
8231;DHT22;4156;50.908;6.974;2022-09-09T07:48:57;20.40;99.90
8231;DHT22;4156;50.908;6.974;2022-09-09T07:51:29;20.40;99.90
8231;DHT22;4156;50.908;6.974;2022-09-09T07:53:58;20.40;99.90
8231;DHT22;4156;50.908;6.974;2022-09-09T07:56:24;20.40;99.90
8231;DHT22;4156;50.908;6.974;2022-09-09T07:58:52;20.40;99.90
8231;DHT22;4156;50.908;6.974;2022-09-09T08:03:56;20.40;99.90
8231;DHT22;4156;50.908;6.974;2022-09-09T08:06:26;20.50;99.90
8231;DHT22;4156;50.908;6.974;2022-09-09T08:08:53;20.40;99.90
8231;DHT22;4156;50.908;6.974;2022-09-09T08:11:21;20.40;99.90
8231;DHT22;4156;50.908;6.974;2022-09-09T08:13:49;20.40;99.90
8231;DHT22;4156;50.908;6.974;2022-09-09T08:16:18;20.40;99.90
8231;DHT22;4156;50.908;6.974;2022-09-09T08:18:46;20.40;99.90
8231;DHT22;4156;50.908;6.974;2022-09-09T08:21:15;20.40;99.90
8231;DHT22;4156;50.908;6.974;2022-09-09T08:23:43;20.40;99.90
8231;DHT22;4156;50.908;6.974;2022-09-09T08:26:15;20.40;99.90
8231;DHT22;4156;50.908;6.974;2022-09-09T08:28:42;20.40;99.90
8231;DHT22;4156;50.908;6.974;2022-09-09T08:31:14;20.40;99.90
8231;DHT22;4156;50.908;6.974;2022-09-09T08:33:41;20.40;99.90
8231;DHT22;4156;50.908;6.974;2022-09-09T08:36:09;20.40;99.90
8231;DHT22;4156;50.908;6.974;2022-09-09T08:38:35;20.40;99.90
8231;DHT22;4156;50.908;6.974;2022-09-09T08:43:41;20.50;99.90
8231;DHT22;4156;50.908;6.974;2022-09-09T08:46:25;20.50;99.90
8231;DHT22;4156;50.908;6.974;2022-09-09T08:51:30;20.50;99.90
8231;DHT22;4156;50.908;6.974;2022-09-09T08:54:00;20.50;99.90
8231;DHT22;4156;50.908;6.974;2022-09-09T08:56:28;20.50;99.90
8231;DHT22;4156;50.908;6.974;2022-09-09T08:58:56;20.40;99.90
8231;DHT22;4156;50.908;6.974;2022-09-09T09:04:38;20.50;99.90
8231;DHT22;4156;50.908;6.974;2022-09-09T09:07:25;20.50;99.90
8231;DHT22;4156;50.908;6.974;2022-09-09T09:10:29;20.60;99.90
8231;DHT22;4156;50.908;6.974;2022-09-09T09:12:58;20.60;99.90
8231;DHT22;4156;50.908;6.974;2022-09-09T09:15:38;20.60;99.90
8231;DHT22;4156;50.908;6.974;2022-09-09T09:18:04;20.60;99.90
8231;DHT22;4156;50.908;6.974;2022-09-09T09:20:56;20.70;99.90
8231;DHT22;4156;50.908;6.974;2022-09-09T09:23:26;20.70;99.90
8231;DHT22;4156;50.908;6.974;2022-09-09T09:25:58;20.70;99.90
8231;DHT22;4156;50.908;6.974;2022-09-09T09:28:28;20.70;99.90
8231;DHT22;4156;50.908;6.974;2022-09-09T09:31:03;20.60;99.90
8231;DHT22;4156;50.908;6.974;2022-09-09T09:33:44;20.70;99.90
8231;DHT22;4156;50.908;6.974;2022-09-09T09:36:12;20.70;99.90
8231;DHT22;4156;50.908;6.974;2022-09-09T09:38:58;20.70;99.90
8231;DHT22;4156;50.908;6.974;2022-09-09T09:41:42;20.70;99.90
8231;DHT22;4156;50.908;6.974;2022-09-09T09:44:25;20.70;99.90
8231;DHT22;4156;50.908;6.974;2022-09-09T09:46:51;20.70;99.90
8231;DHT22;4156;50.908;6.974;2022-09-09T09:49:17;20.70;99.90
8231;DHT22;4156;50.908;6.974;2022-09-09T09:51:42;20.80;99.90
8231;DHT22;4156;50.908;6.974;2022-09-09T09:56:39;20.70;99.90
8231;DHT22;4156;50.908;6.974;2022-09-09T09:59:18;20.70;99.90
8231;DHT22;4156;50.908;6.974;2022-09-09T10:01:44;20.70;99.90
8231;DHT22;4156;50.908;6.974;2022-09-09T10:04:16;20.70;99.90
8231;DHT22;4156;50.908;6.974;2022-09-09T10:06:43;20.70;99.90
8231;DHT22;4156;50.908;6.974;2022-09-09T10:09:27;20.70;99.90
8231;DHT22;4156;50.908;6.974;2022-09-09T10:12:19;20.70;99.90
8231;DHT22;4156;50.908;6.974;2022-09-09T10:15:15;20.80;99.90
8231;DHT22;4156;50.908;6.974;2022-09-09T10:20:28;20.80;99.90
8231;DHT22;4156;50.908;6.974;2022-09-09T10:26:12;20.80;99.90
8231;DHT22;4156;50.908;6.974;2022-09-09T10:39:56;20.80;99.90
8231;DHT22;4156;50.908;6.974;2022-09-09T10:42:31;20.80;99.90
8231;DHT22;4156;50.908;6.974;2022-09-09T10:45:17;20.90;99.90
8231;DHT22;4156;50.908;6.974;2022-09-09T10:50:51;20.80;99.90
8231;DHT22;4156;50.908;6.974;2022-09-09T10:53:37;20.80;99.90
8231;DHT22;4156;50.908;6.974;2022-09-09T10:56:11;20.90;99.90
8231;DHT22;4156;50.908;6.974;2022-09-09T10:58:47;20.90;99.90
8231;DHT22;4156;50.908;6.974;2022-09-09T11:01:24;20.90;99.90
8231;DHT22;4156;50.908;6.974;2022-09-09T11:04:44;21.00;99.90
8231;DHT22;4156;50.908;6.974;2022-09-09T11:06:53;21.00;99.90
8231;DHT22;4156;50.908;6.974;2022-09-09T11:09:23;20.90;99.90
8231;DHT22;4156;50.908;6.974;2022-09-09T11:11:52;21.00;99.90
8231;DHT22;4156;50.908;6.974;2022-09-09T11:14:42;21.00;99.90
8231;DHT22;4156;50.908;6.974;2022-09-09T11:17:33;21.00;99.90
8231;DHT22;4156;50.908;6.974;2022-09-09T11:20:01;21.00;99.90
8231;DHT22;4156;50.908;6.974;2022-09-09T11:22:37;21.00;99.90
8231;DHT22;4156;50.908;6.974;2022-09-09T11:27:58;21.00;99.90
8231;DHT22;4156;50.908;6.974;2022-09-09T11:38:29;21.00;99.90
8231;DHT22;4156;50.908;6.974;2022-09-09T11:41:02;21.00;99.90
8231;DHT22;4156;50.908;6.974;2022-09-09T11:43:47;21.00;99.90
8231;DHT22;4156;50.908;6.974;2022-09-09T11:46:14;21.10;99.90
8231;DHT22;4156;50.908;6.974;2022-09-09T11:48:57;21.10;99.90
8231;DHT22;4156;50.908;6.974;2022-09-09T11:53:51;21.10;99.90
8231;DHT22;4156;50.908;6.974;2022-09-09T11:56:43;21.10;99.90
8231;DHT22;4156;50.908;6.974;2022-09-09T11:59:33;21.10;99.90
8231;DHT22;4156;50.908;6.974;2022-09-09T12:02:25;21.10;99.90
8231;DHT22;4156;50.908;6.974;2022-09-09T12:04:58;21.20;99.90
8231;DHT22;4156;50.908;6.974;2022-09-09T12:07:41;21.20;99.90
8231;DHT22;4156;50.908;6.974;2022-09-09T12:12:44;21.20;99.90
8231;DHT22;4156;50.908;6.974;2022-09-09T12:17:50;21.20;99.90
8231;DHT22;4156;50.908;6.974;2022-09-09T12:20:20;21.20;99.90
8231;DHT22;4156;50.908;6.974;2022-09-09T12:22:58;21.20;99.90
8231;DHT22;4156;50.908;6.974;2022-09-09T12:31:07;21.20;99.90
8231;DHT22;4156;50.908;6.974;2022-09-09T12:33:39;21.30;99.90
8231;DHT22;4156;50.908;6.974;2022-09-09T12:36:19;21.30;99.90
8231;DHT22;4156;50.908;6.974;2022-09-09T12:38:45;21.30;99.90
8231;DHT22;4156;50.908;6.974;2022-09-09T12:41:22;21.30;99.90
8231;DHT22;4156;50.908;6.974;2022-09-09T12:43:49;21.30;99.90
8231;DHT22;4156;50.908;6.974;2022-09-09T12:46:38;21.30;99.90
8231;DHT22;4156;50.908;6.974;2022-09-09T12:51:50;21.30;99.90
8231;DHT22;4156;50.908;6.974;2022-09-09T12:54:16;21.30;99.90
8231;DHT22;4156;50.908;6.974;2022-09-09T12:56:45;21.30;99.90
8231;DHT22;4156;50.908;6.974;2022-09-09T12:59:23;21.30;99.90
8231;DHT22;4156;50.908;6.974;2022-09-09T13:01:59;21.30;99.90
8231;DHT22;4156;50.908;6.974;2022-09-09T13:04:24;21.30;99.90
8231;DHT22;4156;50.908;6.974;2022-09-09T13:06:50;21.40;99.90
8231;DHT22;4156;50.908;6.974;2022-09-09T13:09:18;21.40;99.90
8231;DHT22;4156;50.908;6.974;2022-09-09T13:11:46;21.40;99.90
8231;DHT22;4156;50.908;6.974;2022-09-09T13:14:28;21.40;99.90
8231;DHT22;4156;50.908;6.974;2022-09-09T13:16:59;21.40;99.90
8231;DHT22;4156;50.908;6.974;2022-09-09T13:19:25;21.40;99.90
8231;DHT22;4156;50.908;6.974;2022-09-09T13:21:53;21.50;99.90
8231;DHT22;4156;50.908;6.974;2022-09-09T13:24:33;21.50;99.90
8231;DHT22;4156;50.908;6.974;2022-09-09T13:27:02;21.50;99.90
8231;DHT22;4156;50.908;6.974;2022-09-09T13:29:29;21.50;99.90
8231;DHT22;4156;50.908;6.974;2022-09-09T13:32:04;21.50;99.90
8231;DHT22;4156;50.908;6.974;2022-09-09T13:34:33;21.50;99.90
8231;DHT22;4156;50.908;6.974;2022-09-09T13:37:02;21.60;99.90
8231;DHT22;4156;50.908;6.974;2022-09-09T13:39:28;21.60;99.90
8231;DHT22;4156;50.908;6.974;2022-09-09T13:41:54;21.60;99.90
8231;DHT22;4156;50.908;6.974;2022-09-09T13:44:24;21.60;99.90
8231;DHT22;4156;50.908;6.974;2022-09-09T13:47:06;21.60;99.90
8231;DHT22;4156;50.908;6.974;2022-09-09T13:49:32;21.60;99.90
8231;DHT22;4156;50.908;6.974;2022-09-09T13:54:32;21.60;99.90
8231;DHT22;4156;50.908;6.974;2022-09-09T13:56:58;21.60;99.90
8231;DHT22;4156;50.908;6.974;2022-09-09T13:59:23;21.60;99.90
8231;DHT22;4156;50.908;6.974;2022-09-09T14:01:49;21.60;99.90
8231;DHT22;4156;50.908;6.974;2022-09-09T14:04:18;21.60;99.90
8231;DHT22;4156;50.908;6.974;2022-09-09T14:06:43;21.60;99.90
8231;DHT22;4156;50.908;6.974;2022-09-09T14:09:14;21.60;99.90
8231;DHT22;4156;50.908;6.974;2022-09-09T14:11:41;21.70;99.90
8231;DHT22;4156;50.908;6.974;2022-09-09T14:14:07;21.70;99.90
8231;DHT22;4156;50.908;6.974;2022-09-09T14:16:33;21.70;99.90
8231;DHT22;4156;50.908;6.974;2022-09-09T14:18:58;21.70;99.90
8231;DHT22;4156;50.908;6.974;2022-09-09T14:21:27;21.70;99.90
8231;DHT22;4156;50.908;6.974;2022-09-09T14:23:53;21.70;99.90
8231;DHT22;4156;50.908;6.974;2022-09-09T14:26:22;21.70;99.90
8231;DHT22;4156;50.908;6.974;2022-09-09T14:28:49;21.70;99.90
8231;DHT22;4156;50.908;6.974;2022-09-09T14:31:15;21.70;99.90
8231;DHT22;4156;50.908;6.974;2022-09-09T14:33:43;21.70;99.90
8231;DHT22;4156;50.908;6.974;2022-09-09T14:36:09;21.70;99.90
8231;DHT22;4156;50.908;6.974;2022-09-09T14:38:36;21.70;99.90
8231;DHT22;4156;50.908;6.974;2022-09-09T14:41:16;21.70;99.90
8231;DHT22;4156;50.908;6.974;2022-09-09T14:43:42;21.70;99.90
8231;DHT22;4156;50.908;6.974;2022-09-09T14:46:13;21.70;99.90
8231;DHT22;4156;50.908;6.974;2022-09-09T14:48:39;21.70;99.90
8231;DHT22;4156;50.908;6.974;2022-09-09T14:51:11;21.70;99.90
8231;DHT22;4156;50.908;6.974;2022-09-09T14:53:38;21.60;99.90
8231;DHT22;4156;50.908;6.974;2022-09-09T14:56:10;21.60;99.90
8231;DHT22;4156;50.908;6.974;2022-09-09T14:58:36;21.50;99.90
8231;DHT22;4156;50.908;6.974;2022-09-09T15:01:08;21.40;99.90
8231;DHT22;4156;50.908;6.974;2022-09-09T15:03:41;21.30;99.90
8231;DHT22;4156;50.908;6.974;2022-09-09T15:06:08;21.20;99.90
8231;DHT22;4156;50.908;6.974;2022-09-09T15:08:37;21.20;99.90
8231;DHT22;4156;50.908;6.974;2022-09-09T15:11:05;21.20;99.90
8231;DHT22;4156;50.908;6.974;2022-09-09T15:13:36;21.20;99.90
8231;DHT22;4156;50.908;6.974;2022-09-09T15:18:35;21.20;99.90
8231;DHT22;4156;50.908;6.974;2022-09-09T15:21:08;21.20;99.90
8231;DHT22;4156;50.908;6.974;2022-09-09T15:23:35;21.20;99.90
8231;DHT22;4156;50.908;6.974;2022-09-09T15:26:01;21.30;99.90
8231;DHT22;4156;50.908;6.974;2022-09-09T15:28:27;21.30;99.90
8231;DHT22;4156;50.908;6.974;2022-09-09T15:30:53;21.20;99.90
8231;DHT22;4156;50.908;6.974;2022-09-09T15:33:20;21.30;99.90
8231;DHT22;4156;50.908;6.974;2022-09-09T15:35:46;21.40;99.90
8231;DHT22;4156;50.908;6.974;2022-09-09T15:38:12;21.30;99.90
8231;DHT22;4156;50.908;6.974;2022-09-09T15:40:42;21.30;99.90
8231;DHT22;4156;50.908;6.974;2022-09-09T15:43:07;21.30;99.90
8231;DHT22;4156;50.908;6.974;2022-09-09T15:45:35;21.30;99.90
8231;DHT22;4156;50.908;6.974;2022-09-09T15:48:01;21.30;99.90
8231;DHT22;4156;50.908;6.974;2022-09-09T15:50:27;21.20;99.90
8231;DHT22;4156;50.908;6.974;2022-09-09T15:52:58;21.20;99.90
8231;DHT22;4156;50.908;6.974;2022-09-09T15:55:24;21.20;99.90
8231;DHT22;4156;50.908;6.974;2022-09-09T15:57:49;21.10;99.90
8231;DHT22;4156;50.908;6.974;2022-09-09T16:00:15;21.10;99.90
8231;DHT22;4156;50.908;6.974;2022-09-09T16:02:41;21.10;99.90
8231;DHT22;4156;50.908;6.974;2022-09-09T16:05:08;21.00;99.90
8231;DHT22;4156;50.908;6.974;2022-09-09T16:07:33;21.00;99.90
8231;DHT22;4156;50.908;6.974;2022-09-09T16:10:00;20.90;99.90
8231;DHT22;4156;50.908;6.974;2022-09-09T16:12:25;20.80;99.90
8231;DHT22;4156;50.908;6.974;2022-09-09T16:14:51;20.70;99.90
8231;DHT22;4156;50.908;6.974;2022-09-09T16:17:17;20.70;99.90
8231;DHT22;4156;50.908;6.974;2022-09-09T16:19:44;20.60;99.90
8231;DHT22;4156;50.908;6.974;2022-09-09T16:22:11;20.50;99.90
8231;DHT22;4156;50.908;6.974;2022-09-09T16:24:36;20.50;99.90
8231;DHT22;4156;50.908;6.974;2022-09-09T16:27:02;20.40;99.90
8231;DHT22;4156;50.908;6.974;2022-09-09T16:29:27;20.40;99.90
8231;DHT22;4156;50.908;6.974;2022-09-09T16:31:54;20.40;99.90
8231;DHT22;4156;50.908;6.974;2022-09-09T16:34:20;20.30;99.90
8231;DHT22;4156;50.908;6.974;2022-09-09T16:36:47;20.30;99.90
8231;DHT22;4156;50.908;6.974;2022-09-09T16:39:18;20.40;99.90
8231;DHT22;4156;50.908;6.974;2022-09-09T16:41:45;20.40;99.90
8231;DHT22;4156;50.908;6.974;2022-09-09T16:44:13;20.40;99.90
8231;DHT22;4156;50.908;6.974;2022-09-09T16:46:42;20.40;99.90
8231;DHT22;4156;50.908;6.974;2022-09-09T16:49:10;20.40;99.90
8231;DHT22;4156;50.908;6.974;2022-09-09T16:51:45;20.40;99.90
8231;DHT22;4156;50.908;6.974;2022-09-09T16:54:12;20.40;99.90
8231;DHT22;4156;50.908;6.974;2022-09-09T16:56:40;20.40;99.90
8231;DHT22;4156;50.908;6.974;2022-09-09T16:59:19;20.40;99.90
8231;DHT22;4156;50.908;6.974;2022-09-09T17:01:47;20.50;99.90
8231;DHT22;4156;50.908;6.974;2022-09-09T17:04:15;20.40;99.90
8231;DHT22;4156;50.908;6.974;2022-09-09T17:06:46;20.40;99.90
8231;DHT22;4156;50.908;6.974;2022-09-09T17:09:12;20.40;99.90
8231;DHT22;4156;50.908;6.974;2022-09-09T17:11:39;20.40;99.90
8231;DHT22;4156;50.908;6.974;2022-09-09T17:14:06;20.40;99.90
8231;DHT22;4156;50.908;6.974;2022-09-09T17:16:33;20.40;99.90
8231;DHT22;4156;50.908;6.974;2022-09-09T17:19:02;20.50;99.90
8231;DHT22;4156;50.908;6.974;2022-09-09T17:21:30;20.50;99.90
8231;DHT22;4156;50.908;6.974;2022-09-09T17:23:56;20.40;99.90
8231;DHT22;4156;50.908;6.974;2022-09-09T17:26:25;20.40;99.90
8231;DHT22;4156;50.908;6.974;2022-09-09T17:28:55;20.40;99.90
8231;DHT22;4156;50.908;6.974;2022-09-09T17:31:21;20.40;99.90
8231;DHT22;4156;50.908;6.974;2022-09-09T17:33:50;20.40;99.90
8231;DHT22;4156;50.908;6.974;2022-09-09T17:36:31;20.50;99.90
8231;DHT22;4156;50.908;6.974;2022-09-09T17:38:58;20.50;99.90
8231;DHT22;4156;50.908;6.974;2022-09-09T17:41:28;20.50;99.90
8231;DHT22;4156;50.908;6.974;2022-09-09T17:43:54;20.50;99.90
8231;DHT22;4156;50.908;6.974;2022-09-09T17:46:22;20.60;99.90
8231;DHT22;4156;50.908;6.974;2022-09-09T17:48:50;20.50;99.90
8231;DHT22;4156;50.908;6.974;2022-09-09T17:51:18;20.50;99.90
8231;DHT22;4156;50.908;6.974;2022-09-09T17:53:47;20.50;99.90
8231;DHT22;4156;50.908;6.974;2022-09-09T17:56:16;20.40;99.90
8231;DHT22;4156;50.908;6.974;2022-09-09T17:58:42;20.40;99.90
8231;DHT22;4156;50.908;6.974;2022-09-09T18:01:11;20.40;99.90
8231;DHT22;4156;50.908;6.974;2022-09-09T18:03:38;20.40;99.90
8231;DHT22;4156;50.908;6.974;2022-09-09T18:06:06;20.40;99.90